createdAt,value
2023-03-29T00:02:07.388Z,21.92
2023-03-29T00:04:34.741Z,23.30
2023-03-29T00:07:04.544Z,21.88
2023-03-29T00:09:35.868Z,22.05
2023-03-29T00:12:03.078Z,21.30
2023-03-29T00:14:32.827Z,22.30
2023-03-29T00:16:59.644Z,22.00
2023-03-29T00:19:26.565Z,21.30
2023-03-29T00:21:53.460Z,21.92
2023-03-29T00:24:21.320Z,19.75
2023-03-29T00:26:48.688Z,22.05
2023-03-29T00:29:16.104Z,23.05
2023-03-29T00:31:46.009Z,21.08
2023-03-29T00:34:12.831Z,22.90
2023-03-29T00:36:40.439Z,22.50
2023-03-29T00:39:07.401Z,22.58
2023-03-29T00:41:34.159Z,21.52
2023-03-29T00:44:02.871Z,22.38
2023-03-29T00:46:31.220Z,22.00
2023-03-29T00:49:12.723Z,22.02
2023-03-29T00:51:41.475Z,20.90
2023-03-29T00:54:14.814Z,19.13
2023-03-29T00:56:44.960Z,20.35
2023-03-29T00:59:24.646Z,21.05
2023-03-29T01:01:57.548Z,19.00
2023-03-29T01:04:33.977Z,20.10
2023-03-29T01:07:06.032Z,21.30
2023-03-29T01:09:37.542Z,23.58
2023-03-29T01:12:13.916Z,23.58
2023-03-29T01:14:49.072Z,23.80
2023-03-29T01:17:16.235Z,23.48
2023-03-29T01:19:50.928Z,23.58
2023-03-29T01:22:38.759Z,24.00
2023-03-29T01:25:21.341Z,25.42
2023-03-29T01:28:04.202Z,22.40
2023-03-29T01:30:40.075Z,22.02
2023-03-29T01:33:23.635Z,23.45
2023-03-29T01:36:03.547Z,22.45
2023-03-29T01:38:54.610Z,23.30
2023-03-29T01:41:21.768Z,23.25
2023-03-29T01:43:56.384Z,21.20
2023-03-29T01:46:35.516Z,21.80
2023-03-29T01:49:14.638Z,20.45
2023-03-29T01:51:53.403Z,22.35
2023-03-29T01:54:36.566Z,24.25
2023-03-29T01:57:07.017Z,24.00
2023-03-29T01:59:36.981Z,22.95
2023-03-29T02:02:08.251Z,21.63
2023-03-29T02:07:08.772Z,21.13
2023-03-29T02:09:38.604Z,21.48
2023-03-29T02:12:07.259Z,23.33
2023-03-29T02:14:33.918Z,22.77
2023-03-29T02:17:23.417Z,23.42
2023-03-29T02:20:19.061Z,25.10
2023-03-29T02:23:18.704Z,25.13
2023-03-29T02:25:46.594Z,24.05
2023-03-29T02:28:14.640Z,21.77
2023-03-29T02:30:51.440Z,22.20
2023-03-29T02:33:25.719Z,25.63
2023-03-29T02:35:59.212Z,23.88
2023-03-29T02:38:27.873Z,23.83
2023-03-29T02:40:56.746Z,22.67
2023-03-29T02:43:26.147Z,21.10
2023-03-29T02:45:53.465Z,22.38
2023-03-29T02:48:25.399Z,21.65
2023-03-29T02:50:58.108Z,20.42
2023-03-29T02:53:36.070Z,21.02
2023-03-29T02:56:04.230Z,20.00
2023-03-29T02:58:31.716Z,21.67
2023-03-29T03:01:01.210Z,22.30
2023-03-29T03:03:29.145Z,22.38
2023-03-29T03:05:58.607Z,20.47
2023-03-29T03:08:25.458Z,22.23
2023-03-29T03:10:52.584Z,21.58
2023-03-29T03:13:19.574Z,22.50
2023-03-29T03:15:49.180Z,20.95
2023-03-29T03:18:16.879Z,19.98
2023-03-29T03:20:46.923Z,20.38
2023-03-29T03:23:13.729Z,22.55
2023-03-29T03:25:40.608Z,22.75
2023-03-29T03:28:07.638Z,22.00
2023-03-29T03:30:34.774Z,19.10
2023-03-29T03:33:16.968Z,18.92
2023-03-29T03:36:06.100Z,18.92
2023-03-29T03:38:36.160Z,19.77
2023-03-29T03:41:05.418Z,17.80
2023-03-29T03:43:34.145Z,15.68
2023-03-29T03:46:03.293Z,16.17
2023-03-29T03:48:30.548Z,17.45
2023-03-29T03:51:05.576Z,13.75
2023-03-29T03:53:35.128Z,15.15
2023-03-29T03:56:14.422Z,14.52
2023-03-29T03:59:01.123Z,14.82
2023-03-29T04:01:30.958Z,14.05
2023-03-29T04:04:13.139Z,14.55
2023-03-29T04:06:44.217Z,14.32
2023-03-29T04:09:31.294Z,14.77
2023-03-29T04:12:12.879Z,14.35
2023-03-29T04:14:41.553Z,14.30
2023-03-29T04:17:28.597Z,14.57
2023-03-29T04:19:55.779Z,15.52
2023-03-29T04:22:22.626Z,16.95
2023-03-29T04:24:49.299Z,19.50
2023-03-29T04:27:42.209Z,21.15
2023-03-29T04:30:17.906Z,24.40
2023-03-29T04:33:03.966Z,22.88
2023-03-29T04:35:31.568Z,21.85
2023-03-29T04:37:58.502Z,25.95
2023-03-29T04:40:25.272Z,24.08
2023-03-29T04:43:02.648Z,25.85
2023-03-29T04:45:30.367Z,22.40
2023-03-29T04:48:17.105Z,24.90
2023-03-29T04:50:48.285Z,21.67
2023-03-29T04:53:17.365Z,20.83
2023-03-29T04:55:47.017Z,21.23
2023-03-29T04:58:21.401Z,21.02
2023-03-29T05:00:49.563Z,83.40
2023-03-29T05:03:45.364Z,23.05
2023-03-29T05:06:18.552Z,22.58
2023-03-29T05:08:45.298Z,25.33
2023-03-29T05:11:40.895Z,21.98
2023-03-29T05:14:09.306Z,23.20
2023-03-29T05:16:38.144Z,22.38
2023-03-29T05:19:05.921Z,21.02
2023-03-29T05:21:36.650Z,21.92
2023-03-29T05:24:07.436Z,26.35
2023-03-29T05:26:43.799Z,24.83
2023-03-29T05:29:10.718Z,21.42
2023-03-29T05:31:37.920Z,20.77
2023-03-29T05:34:05.514Z,19.23
2023-03-29T05:36:34.706Z,20.25
2023-03-29T05:39:01.940Z,17.95
2023-03-29T05:41:28.942Z,20.38
2023-03-29T05:44:34.340Z,19.23
2023-03-29T05:47:12.011Z,17.33
2023-03-29T05:49:39.467Z,20.33
2023-03-29T05:52:11.642Z,21.30
2023-03-29T05:54:39.053Z,24.35
2023-03-29T05:57:08.501Z,42.22
2023-03-29T05:59:37.072Z,27.80
2023-03-29T06:02:04.958Z,25.27
2023-03-29T06:04:33.961Z,22.83
2023-03-29T06:07:19.200Z,22.63
2023-03-29T06:10:06.304Z,23.85
2023-03-29T06:12:33.361Z,22.83
2023-03-29T06:15:04.837Z,20.48
2023-03-29T06:17:47.535Z,21.90
2023-03-29T06:20:14.958Z,21.92
2023-03-29T06:22:46.742Z,22.55
2023-03-29T06:25:15.455Z,21.35
2023-03-29T06:27:46.755Z,24.30
2023-03-29T06:30:16.936Z,23.85
2023-03-29T06:32:49.860Z,22.17
2023-03-29T06:35:49.686Z,19.02
2023-03-29T06:38:21.343Z,19.60
2023-03-29T06:41:08.250Z,19.70
2023-03-29T06:43:55.324Z,21.20
2023-03-29T06:46:24.839Z,19.52
2023-03-29T06:48:57.101Z,18.58
2023-03-29T06:51:32.787Z,18.27
2023-03-29T06:53:59.701Z,20.00
2023-03-29T06:56:26.940Z,18.38
2023-03-29T06:58:59.974Z,20.27
2023-03-29T07:01:35.079Z,16.98
2023-03-29T07:04:13.949Z,19.88
2023-03-29T07:07:04.089Z,20.60
2023-03-29T07:09:33.580Z,16.50
2023-03-29T07:12:18.823Z,18.17
2023-03-29T07:14:46.716Z,17.83
2023-03-29T07:17:14.917Z,15.95
2023-03-29T07:19:42.196Z,19.50
2023-03-29T07:22:31.984Z,16.52
2023-03-29T07:25:01.091Z,15.63
2023-03-29T07:27:29.145Z,15.90
2023-03-29T07:29:57.005Z,19.25
2023-03-29T07:32:24.231Z,19.42
2023-03-29T07:35:10.846Z,17.17
2023-03-29T07:37:38.093Z,17.73
2023-03-29T07:40:18.257Z,16.90
2023-03-29T07:42:57.438Z,24.20
2023-03-29T07:45:28.677Z,17.40
2023-03-29T07:48:09.010Z,17.27
2023-03-29T07:50:48.217Z,15.70
2023-03-29T07:53:17.390Z,24.85
2023-03-29T07:55:47.745Z,18.73
2023-03-29T07:58:47.152Z,14.75
2023-03-29T08:01:18.902Z,16.83
2023-03-29T08:04:05.137Z,14.88
2023-03-29T08:06:50.612Z,14.57
2023-03-29T08:09:18.829Z,13.85
2023-03-29T08:11:45.587Z,12.45
2023-03-29T08:14:19.643Z,12.95
2023-03-29T08:16:59.211Z,12.68
2023-03-29T08:19:26.279Z,12.57
2023-03-29T08:22:03.906Z,12.70
2023-03-29T08:24:48.488Z,11.80
2023-03-29T08:27:15.704Z,11.18
2023-03-29T08:29:42.732Z,11.20
2023-03-29T08:32:09.621Z,11.13
2023-03-29T08:34:37.236Z,11.55
2023-03-29T08:37:21.038Z,11.63
2023-03-29T08:39:50.836Z,11.75
2023-03-29T08:42:57.417Z,13.60
2023-03-29T08:46:06.332Z,9.50
2023-03-29T08:48:53.764Z,8.35
2023-03-29T08:51:28.286Z,9.30
2023-03-29T08:54:06.411Z,9.13
2023-03-29T08:57:01.207Z,9.25
2023-03-29T08:59:33.179Z,8.30
2023-03-29T09:02:06.047Z,8.40
2023-03-29T09:04:37.737Z,9.03
2023-03-29T09:09:54.894Z,12.88
2023-03-29T09:13:00.259Z,10.52
2023-03-29T09:15:40.221Z,9.35
2023-03-29T09:18:54.122Z,7.55
2023-03-29T09:21:27.442Z,8.68
2023-03-29T09:24:20.868Z,7.57
2023-03-29T09:27:05.294Z,8.35
2023-03-29T09:29:56.750Z,8.25
2023-03-29T09:32:51.749Z,8.35
2023-03-29T09:35:30.250Z,7.38
2023-03-29T09:37:58.069Z,8.32
2023-03-29T09:40:32.887Z,7.82
2023-03-29T09:43:18.445Z,7.57
2023-03-29T09:45:52.302Z,7.43
2023-03-29T09:48:21.298Z,7.35
2023-03-29T09:50:55.942Z,6.07
2023-03-29T09:53:22.975Z,6.80
2023-03-29T09:56:15.431Z,6.05
2023-03-29T09:58:51.340Z,6.32
2023-03-29T10:01:19.830Z,6.18
2023-03-29T10:03:52.323Z,7.63
2023-03-29T10:06:23.847Z,6.53
2023-03-29T10:08:57.237Z,6.25
2023-03-29T10:11:32.950Z,6.38
2023-03-29T10:14:40.537Z,5.50
2023-03-29T10:17:21.860Z,7.30
2023-03-29T10:19:55.735Z,7.43
2023-03-29T10:22:28.497Z,7.25
2023-03-29T10:24:58.012Z,8.05
2023-03-29T10:27:28.244Z,7.90
2023-03-29T10:29:56.653Z,8.45
2023-03-29T10:32:34.270Z,9.13
2023-03-29T10:35:26.085Z,11.68
2023-03-29T10:37:57.611Z,9.25
2023-03-29T10:40:31.896Z,9.43
2023-03-29T10:43:12.876Z,10.73
2023-03-29T10:45:41.086Z,11.30
2023-03-29T10:48:13.668Z,10.40
2023-03-29T10:50:40.664Z,11.82
2023-03-29T10:53:21.843Z,11.90
2023-03-29T10:56:16.185Z,10.93
2023-03-29T10:58:53.057Z,12.00
2023-03-29T11:01:58.305Z,11.38
2023-03-29T11:04:34.545Z,11.18
2023-03-29T11:07:12.146Z,10.50
2023-03-29T11:09:42.144Z,11.18
2023-03-29T11:12:31.225Z,9.95
2023-03-29T11:15:19.065Z,11.02
2023-03-29T11:18:09.505Z,11.32
2023-03-29T11:20:45.172Z,11.00
2023-03-29T11:23:39.899Z,10.95
2023-03-29T11:26:29.169Z,9.55
2023-03-29T11:29:05.831Z,9.95
2023-03-29T11:32:23.795Z,10.68
2023-03-29T11:35:29.164Z,10.20
2023-03-29T11:38:17.988Z,10.38
2023-03-29T11:41:15.790Z,11.20
2023-03-29T11:43:45.903Z,9.70
2023-03-29T11:46:20.193Z,9.38
2023-03-29T11:49:00.727Z,10.15
2023-03-29T11:51:36.611Z,8.23
2023-03-29T11:54:12.905Z,8.43
2023-03-29T11:56:59.639Z,9.43
2023-03-29T11:59:51.213Z,9.57
2023-03-29T12:04:54.935Z,8.40
2023-03-29T12:07:35.900Z,8.02
2023-03-29T12:10:27.337Z,8.02
2023-03-29T12:13:21.100Z,7.32
2023-03-29T12:16:13.757Z,7.20
2023-03-29T12:18:42.981Z,6.97
2023-03-29T12:21:14.896Z,6.95
2023-03-29T12:23:43.862Z,6.20
2023-03-29T12:26:29.065Z,7.38
2023-03-29T12:29:04.210Z,6.03
2023-03-29T12:31:42.028Z,6.30
2023-03-29T12:34:29.690Z,5.95
2023-03-29T12:37:32.209Z,5.50
2023-03-29T12:40:20.025Z,4.85
2023-03-29T12:43:23.287Z,3.63
2023-03-29T12:46:11.462Z,5.05
2023-03-29T12:48:41.600Z,4.47
2023-03-29T12:51:14.952Z,3.83
2023-03-29T12:53:46.349Z,4.40
2023-03-29T12:58:53.527Z,3.53
2023-03-29T13:01:37.051Z,3.00
2023-03-29T13:04:49.581Z,3.80
2023-03-29T13:07:22.313Z,4.20
2023-03-29T13:09:52.915Z,4.43
2023-03-29T13:12:20.254Z,3.95
2023-03-29T13:15:02.909Z,3.90
2023-03-29T13:17:49.357Z,4.13
2023-03-29T13:20:19.189Z,4.18
2023-03-29T13:22:51.848Z,5.00
2023-03-29T13:25:38.527Z,4.55
2023-03-29T13:28:27.410Z,4.63
2023-03-29T13:31:39.126Z,5.05
2023-03-29T13:34:31.076Z,5.50
2023-03-29T13:37:35.698Z,5.43
2023-03-29T13:40:02.447Z,4.75
2023-03-29T13:42:35.556Z,6.13
2023-03-29T13:45:15.439Z,5.43
2023-03-29T13:47:54.935Z,6.13
2023-03-29T13:50:40.377Z,5.60
2023-03-29T13:53:15.565Z,5.82
2023-03-29T13:55:52.414Z,6.38
2023-03-29T13:58:51.365Z,6.35
2023-03-29T14:01:28.917Z,6.72
2023-03-29T14:03:56.767Z,6.47
2023-03-29T14:06:29.324Z,8.60
2023-03-29T14:08:56.390Z,7.80
2023-03-29T14:11:29.092Z,8.63
2023-03-29T14:14:01.526Z,10.48
2023-03-29T14:16:32.867Z,9.77
2023-03-29T14:21:26.874Z,8.50
2023-03-29T14:24:23.173Z,10.80
2023-03-29T14:26:50.051Z,10.45
2023-03-29T14:29:18.282Z,8.05
2023-03-29T14:31:45.513Z,8.70
2023-03-29T14:34:15.128Z,8.32
2023-03-29T14:36:45.156Z,8.82
2023-03-29T14:39:17.437Z,9.25
2023-03-29T14:41:53.323Z,9.10
2023-03-29T14:44:27.036Z,9.20
2023-03-29T14:46:54.911Z,8.15
2023-03-29T14:49:22.978Z,9.45
2023-03-29T14:51:50.986Z,8.75
2023-03-29T14:54:25.609Z,8.82
2023-03-29T14:56:53.131Z,10.07
2023-03-29T14:59:37.650Z,7.95
2023-03-29T15:02:21.859Z,8.60
2023-03-29T15:05:04.626Z,8.68
2023-03-29T15:07:33.573Z,11.45
2023-03-29T15:10:02.250Z,10.90
2023-03-29T15:12:30.775Z,12.57
2023-03-29T15:14:59.604Z,11.75
2023-03-29T15:17:50.123Z,11.48
2023-03-29T15:20:33.400Z,11.02
2023-03-29T15:23:07.837Z,10.10
2023-03-29T15:25:37.383Z,10.35
2023-03-29T15:28:05.016Z,11.00
2023-03-29T15:30:44.237Z,12.13
2023-03-29T15:33:21.086Z,11.52
2023-03-29T15:35:51.538Z,19.65
2023-03-29T15:38:27.702Z,16.03
2023-03-29T15:41:04.081Z,12.35
2023-03-29T15:43:31.030Z,12.85
2023-03-29T15:45:58.016Z,12.20
2023-03-29T15:48:29.040Z,12.20
2023-03-29T15:50:57.194Z,13.77
2023-03-29T15:53:24.963Z,14.98
2023-03-29T15:55:54.647Z,11.70
2023-03-29T15:58:25.649Z,12.77
2023-03-29T16:01:02.602Z,13.65
2023-03-29T16:03:29.732Z,14.35
2023-03-29T16:05:57.051Z,12.98
2023-03-29T16:08:25.057Z,12.95
2023-03-29T16:10:52.122Z,13.23
2023-03-29T16:13:19.007Z,12.77
2023-03-29T16:15:46.022Z,15.48
2023-03-29T16:18:12.727Z,19.70
2023-03-29T16:20:39.662Z,12.38
2023-03-29T16:23:11.459Z,12.70
2023-03-29T16:25:39.971Z,9.95
2023-03-29T16:28:09.083Z,12.93
2023-03-29T16:30:37.543Z,12.15
2023-03-29T16:33:08.474Z,12.40
2023-03-29T16:35:40.416Z,12.00
2023-03-29T16:38:07.761Z,13.98
2023-03-29T16:40:35.661Z,14.98
2023-03-29T16:43:02.934Z,13.20
2023-03-29T16:45:29.708Z,13.45
2023-03-29T16:47:57.931Z,14.40
2023-03-29T16:50:24.862Z,16.85
2023-03-29T16:52:52.639Z,15.45
2023-03-29T16:55:19.844Z,15.82
2023-03-29T16:57:48.543Z,15.73
2023-03-29T17:00:17.112Z,15.95
2023-03-29T17:02:44.168Z,15.45
2023-03-29T17:05:12.486Z,15.35
2023-03-29T17:07:39.642Z,17.45
2023-03-29T17:10:08.269Z,14.93
2023-03-29T17:12:36.166Z,17.30
2023-03-29T17:15:05.162Z,17.55
2023-03-29T17:17:32.151Z,21.85
2023-03-29T17:19:58.857Z,16.27
2023-03-29T17:22:25.899Z,14.45
2023-03-29T17:24:52.653Z,16.60
2023-03-29T17:27:19.557Z,15.20
2023-03-29T17:29:46.286Z,14.57
2023-03-29T17:32:13.085Z,15.80
2023-03-29T17:34:39.820Z,16.58
2023-03-29T17:37:06.552Z,14.68
2023-03-29T17:39:37.154Z,16.05
2023-03-29T17:42:05.365Z,11.32
2023-03-29T17:44:33.340Z,15.85
2023-03-29T17:47:01.370Z,14.75
2023-03-29T17:49:28.533Z,16.90
2023-03-29T17:51:55.446Z,15.13
2023-03-29T17:54:22.163Z,15.38
2023-03-29T17:56:48.952Z,17.38
2023-03-29T17:59:16.325Z,15.77
2023-03-29T18:01:43.444Z,15.07
2023-03-29T18:04:10.614Z,15.15
2023-03-29T18:06:37.486Z,15.68
2023-03-29T18:09:04.745Z,16.52
2023-03-29T18:11:31.629Z,14.38
2023-03-29T18:14:00.336Z,14.60
2023-03-29T18:16:27.779Z,16.08
2023-03-29T18:18:54.565Z,14.45
2023-03-29T18:21:22.037Z,15.77
2023-03-29T18:23:49.890Z,14.88
2023-03-29T18:26:17.624Z,13.95
2023-03-29T18:28:48.665Z,12.60
2023-03-29T18:31:15.717Z,12.93
2023-03-29T18:33:42.561Z,14.85
2023-03-29T18:36:13.219Z,13.63
2023-03-29T18:38:43.416Z,17.88
2023-03-29T18:41:12.492Z,22.48
2023-03-29T18:43:40.581Z,13.95
2023-03-29T18:46:08.360Z,14.05
2023-03-29T18:48:38.955Z,16.15
2023-03-29T18:51:07.493Z,11.00
2023-03-29T18:53:35.861Z,21.13
2023-03-29T18:56:04.074Z,21.40
2023-03-29T18:58:31.257Z,17.98
2023-03-29T19:01:05.937Z,21.75
2023-03-29T19:03:34.481Z,18.42
2023-03-29T19:06:02.742Z,14.05
2023-03-29T19:08:29.790Z,13.85
2023-03-29T19:11:05.564Z,23.25
2023-03-29T19:13:32.265Z,27.75
2023-03-29T19:15:59.268Z,16.77
2023-03-29T19:18:26.695Z,16.83
2023-03-29T19:20:54.343Z,16.15
2023-03-29T19:23:22.291Z,17.65
2023-03-29T19:25:57.279Z,18.88
2023-03-29T19:28:25.026Z,17.10
2023-03-29T19:30:51.980Z,18.13
2023-03-29T19:33:20.008Z,19.85
2023-03-29T19:35:47.164Z,18.77
2023-03-29T19:38:13.997Z,15.10
2023-03-29T19:40:45.268Z,16.73
2023-03-29T19:45:44.334Z,17.88
2023-03-29T19:48:21.091Z,17.30
2023-03-29T19:50:48.865Z,16.30
2023-03-29T19:53:15.747Z,18.08
2023-03-29T19:55:44.202Z,16.25
2023-03-29T19:58:11.038Z,26.63
2023-03-29T20:00:38.982Z,19.13
2023-03-29T20:03:09.745Z,19.23
2023-03-29T20:05:37.486Z,18.50
2023-03-29T20:08:04.256Z,20.25
2023-03-29T20:10:31.077Z,17.63
2023-03-29T20:12:57.854Z,16.35
2023-03-29T20:15:27.461Z,16.90
2023-03-29T20:17:59.147Z,19.73
2023-03-29T20:20:27.409Z,16.73
2023-03-29T20:22:58.102Z,16.98
2023-03-29T20:25:25.069Z,19.52
2023-03-29T20:27:53.188Z,16.98
2023-03-29T20:30:20.616Z,16.35
2023-03-29T20:32:47.549Z,16.13
2023-03-29T20:35:14.419Z,16.13
2023-03-29T20:37:41.434Z,19.08
2023-03-29T20:40:08.853Z,18.02
2023-03-29T20:42:36.753Z,19.83
2023-03-29T20:45:04.504Z,18.70
2023-03-29T20:47:31.619Z,15.75
2023-03-29T20:49:58.861Z,17.23
2023-03-29T20:52:25.563Z,17.23
2023-03-29T20:54:52.267Z,18.50
2023-03-29T20:57:20.969Z,17.73
2023-03-29T20:59:49.196Z,16.10
2023-03-29T21:02:21.756Z,17.92
2023-03-29T21:04:52.868Z,16.95
2023-03-29T21:07:21.497Z,16.58
2023-03-29T21:09:49.963Z,17.20
2023-03-29T21:12:17.512Z,18.73
2023-03-29T21:14:44.858Z,16.27
2023-03-29T21:17:11.765Z,16.42
2023-03-29T21:19:39.456Z,16.33
2023-03-29T21:22:06.827Z,15.30
2023-03-29T21:24:34.145Z,17.35
2023-03-29T21:27:00.939Z,16.08
2023-03-29T21:29:28.013Z,15.77
2023-03-29T21:31:55.177Z,17.38
2023-03-29T21:34:22.182Z,15.63
2023-03-29T21:36:49.398Z,14.15
2023-03-29T21:39:16.325Z,14.45
2023-03-29T21:41:43.340Z,12.35
2023-03-29T21:44:10.132Z,12.80
2023-03-29T21:46:37.148Z,12.98
2023-03-29T21:49:03.982Z,12.70
2023-03-29T21:51:30.931Z,12.82
2023-03-29T21:53:57.614Z,11.60
2023-03-29T21:56:24.477Z,13.25
2023-03-29T21:58:51.167Z,16.05
2023-03-29T22:01:18.079Z,16.27
2023-03-29T22:03:44.914Z,16.40
2023-03-29T22:06:13.688Z,14.80
2023-03-29T22:08:40.814Z,13.55
2023-03-29T22:11:14.373Z,12.75
2023-03-29T22:13:43.062Z,13.15
2023-03-29T22:16:14.016Z,14.38
2023-03-29T22:18:45.067Z,14.52
2023-03-29T22:21:15.232Z,9.80
2023-03-29T22:23:47.145Z,12.30
2023-03-29T22:26:16.204Z,12.88
2023-03-29T22:28:43.309Z,13.43
2023-03-29T22:31:13.779Z,14.30
2023-03-29T22:33:41.049Z,13.73
2023-03-29T22:36:18.416Z,11.55
2023-03-29T22:38:46.249Z,11.95
2023-03-29T22:41:14.034Z,10.70
2023-03-29T22:43:41.291Z,11.00
2023-03-29T22:46:10.267Z,9.82
2023-03-29T22:48:37.643Z,11.20
2023-03-29T22:51:05.758Z,9.57
2023-03-29T22:53:33.436Z,8.57
2023-03-29T22:56:00.422Z,10.07
2023-03-29T22:58:27.240Z,8.75
2023-03-29T23:00:54.080Z,9.82
2023-03-29T23:03:23.843Z,8.50
2023-03-29T23:05:55.826Z,8.98
2023-03-29T23:08:24.137Z,8.77
2023-03-29T23:10:51.167Z,8.50
2023-03-29T23:13:28.738Z,8.02
2023-03-29T23:15:58.974Z,10.35
2023-03-29T23:18:28.721Z,9.90
2023-03-29T23:20:57.358Z,10.65
2023-03-29T23:23:26.755Z,9.75
2023-03-29T23:25:55.671Z,10.52
2023-03-29T23:28:25.126Z,8.60
2023-03-29T23:31:03.667Z,8.15
2023-03-29T23:33:33.746Z,8.88
2023-03-29T23:36:04.802Z,9.05
2023-03-29T23:38:33.314Z,8.52
2023-03-29T23:41:02.384Z,8.38
2023-03-29T23:43:34.173Z,7.47
2023-03-29T23:46:03.369Z,6.00
2023-03-29T23:48:30.568Z,7.05
2023-03-29T23:50:57.514Z,7.28
2023-03-29T23:53:29.000Z,7.38
2023-03-29T23:55:58.376Z,7.63
2023-03-29T23:58:25.100Z,6.88
